Time;durP1;ratioP1;P1;durP2;ratioP2;P2;SDS_P1;SDS_P2;PMS_P1;PMS_P2;Temp;Humidity;BMP_temperature;BMP_pressure;BME280_temperature;BME280_humidity;BME280_pressure;Samples;Min_cycle;Max_cycle;Signal;HPM_P1;HPM_P2
2022/06/03 00:01:58;;;;;;;5.90;4.77;;;14.90;99.90;;;;;;4951685;28;20206;-83
2022/06/03 00:04:49;;;;;;;6.00;4.90;;;14.80;99.90;;;;;;4956819;28;20199;-83
2022/06/03 00:07:30;;;;;;;8.50;7.80;;;14.80;99.90;;;;;;4971514;28;20218;-83
2022/06/03 00:10:20;;;;;;;8.47;7.77;;;14.70;99.90;;;;;;4971658;28;20209;-83
2022/06/03 00:12:54;;;;;;;8.43;4.50;;;14.70;99.90;;;;;;4971501;28;20255;-83
2022/06/03 00:15:39;;;;;;;6.17;5.13;;;14.60;99.90;;;;;;4955544;28;20672;-82
2022/06/03 00:18:34;;;;;;;5.80;4.67;;;14.70;99.90;;;;;;4956500;28;20226;-83
2022/06/03 00:21:07;;;;;;;6.67;5.27;;;14.60;99.90;;;;;;4950625;28;20725;-83
2022/06/03 00:23:59;;;;;;;5.07;4.27;;;14.60;99.90;;;;;;4955248;28;20222;-83
2022/06/03 00:26:59;;;;;;;5.50;4.33;;;14.60;99.90;;;;;;4955049;28;20230;-83
2022/06/03 00:29:38;;;;;;;7.50;6.90;;;14.50;99.90;;;;;;4955204;28;20214;-83
2022/06/03 00:32:53;;;;;;;5.30;4.37;;;14.40;99.90;;;;;;4968102;28;20214;-81
2022/06/03 00:36:00;;;;;;;5.93;4.50;;;14.40;99.90;;;;;;4953218;28;20653;-82
2022/06/03 00:38:46;;;;;;;5.13;4.53;;;14.40;99.90;;;;;;4950177;28;20235;-81
2022/06/03 00:41:26;;;;;;;7.63;6.93;;;14.30;99.90;;;;;;4971545;28;20254;-83
2022/06/03 00:44:30;;;;;;;5.67;5.17;;;14.30;99.90;;;;;;4956083;28;20278;-83
2022/06/03 00:47:09;;;;;;;7.50;6.90;;;14.30;99.90;;;;;;4956387;28;20225;-82
2022/06/03 00:49:55;;;;;;;5.33;4.40;;;14.30;99.90;;;;;;4971032;28;20544;-83
2022/06/03 00:52:48;;;;;;;5.07;4.50;;;14.20;99.90;;;;;;4954833;28;20292;-83
2022/06/03 00:55:45;;;;;;;7.37;6.67;;;14.20;99.90;;;;;;4951191;29;20558;-82
2022/06/03 00:58:45;;;;;;;5.77;4.43;;;14.10;99.90;;;;;;4891435;29;20242;-83
2022/06/03 01:01:17;;;;;;;5.50;5.00;;;14.10;99.90;;;;;;4967593;28;20206;-83
2022/06/03 01:04:08;;;;;;;6.57;5.93;;;14.10;99.90;;;;;;4949110;29;20648;-83
2022/06/03 01:06:46;;;;;;;5.33;4.20;;;14.10;99.90;;;;;;4955863;28;20218;-83
2022/06/03 01:09:30;;;;;;;4.97;4.40;;;14.00;99.90;;;;;;4967685;28;20299;-83
2022/06/03 01:12:21;;;;;;;5.17;4.20;;;14.00;99.90;;;;;;4970622;28;20675;-82
2022/06/03 01:15:03;;;;;;;6.40;4.40;;;14.00;99.90;;;;;;4965870;28;20259;-82
2022/06/03 01:17:38;;;;;;;6.50;4.80;;;14.00;99.90;;;;;;4969535;28;20226;-82
2022/06/03 01:20:29;;;;;;;5.07;4.30;;;14.00;99.90;;;;;;4951301;28;20203;-81
2022/06/03 01:23:27;;;;;;;5.97;5.03;;;14.00;99.90;;;;;;4962420;28;20251;-82
2022/06/03 01:26:16;;;;;;;6.03;5.47;;;13.90;99.90;;;;;;4944780;28;20203;-82
2022/06/03 01:29:03;;;;;;;8.23;7.40;;;13.90;99.90;;;;;;4954391;28;20672;-83
2022/06/03 01:32:11;;;;;;;6.63;5.10;;;13.90;99.90;;;;;;4970268;28;20617;-81
2022/06/03 01:34:54;;;;;;;5.13;4.63;;;13.90;99.90;;;;;;4951388;28;20202;-83
2022/06/03 01:37:27;;;;;;;4.93;4.40;;;13.90;99.90;;;;;;4954109;28;20281;-81
2022/06/03 01:40:16;;;;;;;5.17;4.67;;;13.80;99.90;;;;;;4955326;28;20190;-82
2022/06/03 01:43:00;;;;;;;7.20;6.43;;;13.80;99.90;;;;;;4954002;28;20201;-82
2022/06/03 01:45:55;;;;;;;5.30;4.80;;;13.80;99.90;;;;;;4954588;28;20269;-83
2022/06/03 01:48:55;;;;;;;5.63;4.37;;;13.80;99.90;;;;;;4954745;28;20246;-83
2022/06/03 01:51:46;;;;;;;7.77;5.00;;;13.80;99.90;;;;;;4941617;28;20232;-83
2022/06/03 01:54:44;;;;;;;6.33;4.60;;;13.80;99.90;;;;;;4966705;28;20207;-82
2022/06/03 01:57:26;;;;;;;5.83;5.00;;;13.80;99.90;;;;;;4953361;28;20265;-83
2022/06/03 02:00:14;;;;;;;5.60;5.00;;;13.70;99.90;;;;;;4964064;28;20243;-82
2022/06/03 02:03:15;;;;;;;7.23;5.00;;;13.70;99.90;;;;;;4962243;28;20213;-82
2022/06/03 02:06:13;;;;;;;5.27;4.33;;;13.70;99.90;;;;;;4947303;28;20646;-83
2022/06/03 02:09:05;;;;;;;7.93;7.30;;;13.70;99.90;;;;;;4953621;28;20731;-82
2022/06/03 02:11:57;;;;;;;5.00;4.47;;;13.60;99.90;;;;;;4953625;28;20264;-82
2022/06/03 02:15:06;;;;;;;5.60;4.83;;;13.60;99.90;;;;;;4954602;28;20198;-81
2022/06/03 02:18:07;;;;;;;9.07;7.67;;;13.60;99.90;;;;;;4954479;28;20218;-83
2022/06/03 02:21:09;;;;;;;9.07;8.23;;;13.60;99.90;;;;;;4969126;28;20561;-83
2022/06/03 02:24:04;;;;;;;8.70;7.97;;;13.60;99.90;;;;;;4953197;28;20619;-82
2022/06/03 02:26:50;;;;;;;9.40;8.53;;;13.60;99.90;;;;;;4968822;28;20313;-81
2022/06/03 02:32:55;;;;;;;5.47;4.93;;;13.60;99.90;;;;;;4946798;28;20202;-83
2022/06/03 02:35:36;;;;;;;6.13;5.17;;;13.60;99.90;;;;;;4967334;28;20270;-82
2022/06/03 02:38:30;;;;;;;6.33;5.43;;;13.60;99.90;;;;;;4954088;28;20276;-82
2022/06/03 02:41:46;;;;;;;5.13;4.63;;;13.60;99.90;;;;;;4944451;29;20213;-83
2022/06/03 02:44:40;;;;;;;6.50;5.20;;;13.60;99.90;;;;;;4950097;28;20198;-84
2022/06/03 02:47:47;;;;;;;6.43;4.97;;;13.70;99.90;;;;;;4943243;28;20237;-81
2022/06/03 02:50:40;;;;;;;5.33;4.83;;;13.70;99.90;;;;;;4965492;28;20210;-84
2022/06/03 02:53:42;;;;;;;5.20;4.70;;;13.70;99.90;;;;;;4951793;28;20274;-84
2022/06/03 02:56:28;;;;;;;5.47;4.70;;;13.60;99.90;;;;;;4961403;28;20463;-80
2022/06/03 02:59:17;;;;;;;6.53;5.67;;;13.60;99.90;;;;;;4958133;28;20213;-81
2022/06/03 03:02:13;;;;;;;5.67;5.17;;;13.60;99.90;;;;;;4965078;28;20206;-79
2022/06/03 03:04:56;;;;;;;6.27;5.47;;;13.60;99.90;;;;;;4936764;29;20245;-82
2022/06/03 03:07:50;;;;;;;7.77;5.97;;;13.60;99.90;;;;;;4951961;28;20222;-82
2022/06/03 03:10:45;;;;;;;6.10;5.33;;;13.60;99.90;;;;;;4949800;29;20202;-82
2022/06/03 03:13:34;;;;;;;5.87;5.27;;;13.60;99.90;;;;;;4969259;28;20213;-80
2022/06/03 03:16:30;;;;;;;8.33;5.93;;;13.60;99.90;;;;;;4970200;28;20261;-81
2022/06/03 03:19:22;;;;;;;6.97;6.27;;;13.60;99.90;;;;;;4951898;28;20246;-81
2022/06/03 03:22:27;;;;;;;6.50;5.90;;;13.60;99.90;;;;;;4962331;28;20199;-79
2022/06/03 03:25:29;;;;;;;6.10;5.47;;;13.50;99.90;;;;;;4935470;29;20214;-82
2022/06/03 03:28:27;;;;;;;6.37;5.70;;;13.60;99.90;;;;;;4963248;28;20774;-82
2022/06/03 03:31:07;;;;;;;5.90;5.30;;;13.60;99.90;;;;;;4956666;28;20203;-82
2022/06/03 03:33:59;;;;;;;5.37;4.70;;;13.60;99.90;;;;;;4956837;28;20198;-80
2022/06/03 03:36:57;;;;;;;6.83;5.60;;;13.60;99.90;;;;;;4957057;28;20298;-82
2022/06/03 03:39:57;;;;;;;5.70;5.20;;;13.60;99.90;;;;;;4971380;28;20221;-82
2022/06/03 03:42:52;;;;;;;6.53;5.43;;;13.70;99.90;;;;;;4937267;28;20210;-82
2022/06/03 03:45:48;;;;;;;6.00;5.37;;;13.80;99.90;;;;;;4951261;29;20247;-83
2022/06/03 03:48:51;;;;;;;6.03;5.27;;;13.90;99.90;;;;;;4968767;28;20230;-83
2022/06/03 03:51:28;;;;;;;9.07;8.27;;;13.90;99.90;;;;;;4954103;29;20672;-82
2022/06/03 03:54:56;;;;;;;8.40;7.70;;;13.90;99.90;;;;;;4951912;28;20199;-83
2022/06/03 03:57:52;;;;;;;8.03;7.33;;;14.00;99.90;;;;;;4954713;28;20249;-83
2022/06/03 04:01:02;;;;;;;8.57;7.97;;;14.00;99.90;;;;;;4954144;28;20214;-83
2022/06/03 04:04:19;;;;;;;8.37;7.77;;;14.10;99.90;;;;;;4956284;28;20229;-83
2022/06/03 04:07:15;;;;;;;8.47;7.87;;;14.20;99.90;;;;;;4869254;29;20232;-81
2022/06/03 04:09:59;;;;;;;7.20;6.53;;;14.20;99.90;;;;;;4909162;29;20236;-83
2022/06/03 04:12:58;;;;;;;7.67;7.03;;;14.20;99.90;;;;;;4947265;28;20898;-82
2022/06/03 04:16:01;;;;;;;7.53;6.93;;;14.20;99.90;;;;;;4969579;28;20203;-83
2022/06/03 04:19:01;;;;;;;8.13;7.43;;;14.20;99.90;;;;;;4960743;28;20663;-83
2022/06/03 04:21:51;;;;;;;8.07;7.47;;;14.30;99.90;;;;;;4923383;28;20270;-83
2022/06/03 04:24:47;;;;;;;9.17;8.30;;;14.40;99.90;;;;;;4970825;28;20211;-83
2022/06/03 04:27:40;;;;;;;6.00;4.83;;;14.50;99.90;;;;;;4955801;28;20228;-82
2022/06/03 04:30:32;;;;;;;7.53;6.83;;;14.60;99.90;;;;;;4970669;28;20206;-83
2022/06/03 04:33:51;;;;;;;6.57;6.07;;;14.60;99.90;;;;;;4954712;28;20203;-82
2022/06/03 04:37:16;;;;;;;5.10;4.60;;;14.60;99.90;;;;;;4955792;28;20617;-83
2022/06/03 04:40:30;;;;;;;7.97;7.27;;;14.70;99.90;;;;;;4922074;29;20230;-83
2022/06/03 04:43:42;;;;;;;7.33;6.73;;;14.90;99.90;;;;;;4965584;28;20665;-82
2022/06/03 04:46:51;;;;;;;7.00;6.40;;;15.00;99.90;;;;;;4940821;28;20258;-84
2022/06/03 04:50:00;;;;;;;7.87;7.20;;;15.20;99.90;;;;;;4953471;28;20196;-83
2022/06/03 04:53:08;;;;;;;5.37;4.87;;;15.40;99.90;;;;;;4942370;28;20679;-83
2022/06/03 04:56:19;;;;;;;6.50;5.90;;;16.00;99.90;;;;;;4955479;28;20888;-81
2022/06/03 04:59:34;;;;;;;7.03;6.33;;;16.10;99.90;;;;;;4933438;28;20255;-83
2022/06/03 05:02:34;;;;;;;7.13;6.53;;;16.20;99.90;;;;;;4965688;28;20252;-83
2022/06/03 05:05:37;;;;;;;8.13;7.33;;;16.20;99.90;;;;;;4946846;29;20201;-82
2022/06/03 05:08:40;;;;;;;5.37;4.90;;;16.30;99.90;;;;;;4936157;28;20229;-83
2022/06/03 05:11:57;;;;;;;5.10;4.70;;;16.50;99.90;;;;;;4966379;28;20209;-84
2022/06/03 05:15:06;;;;;;;4.70;4.30;;;16.60;99.90;;;;;;4923849;28;20304;-83
2022/06/03 05:18:01;;;;;;;6.40;5.90;;;16.70;99.90;;;;;;4969831;28;20222;-83
2022/06/03 05:20:59;;;;;;;6.03;5.60;;;17.10;99.90;;;;;;4953729;28;20300;-83
2022/06/03 05:24:04;;;;;;;6.77;6.17;;;17.30;99.90;;;;;;4968624;28;20207;-84
2022/06/03 05:27:03;;;;;;;6.70;5.97;;;17.40;99.90;;;;;;4952512;28;20245;-81
2022/06/03 05:30:18;;;;;;;6.50;6.00;;;17.40;99.90;;;;;;4969456;28;20213;-83
2022/06/03 05:33:19;;;;;;;5.10;4.70;;;17.50;99.90;;;;;;4969664;28;20264;-83
2022/06/03 05:36:24;;;;;;;4.70;4.07;;;17.60;99.90;;;;;;4968300;28;20620;-82
2022/06/03 05:39:35;;;;;;;5.07;4.57;;;18.00;99.90;;;;;;4954521;28;20720;-83
2022/06/03 05:42:28;;;;;;;5.80;5.40;;;18.50;99.90;;;;;;4964926;28;20192;-82
2022/06/03 05:45:23;;;;;;;4.57;3.83;;;19.20;99.90;;;;;;4974640;28;20265;-81
2022/06/03 05:47:54;;;;;;;6.10;5.50;;;20.00;99.90;;;;;;4954641;28;20229;-81
2022/06/03 05:50:29;;;;;;;5.30;4.80;;;20.80;99.90;;;;;;4957962;28;20276;-80
2022/06/03 05:53:11;;;;;;;6.03;5.53;;;21.40;99.90;;;;;;4970143;28;20198;-81
2022/06/03 05:55:47;;;;;;;6.23;5.83;;;21.90;99.90;;;;;;4949568;28;20249;-81
2022/06/03 05:58:38;;;;;;;6.70;5.50;;;22.30;99.90;;;;;;4958772;28;20214;-81
2022/06/03 06:01:33;;;;;;;5.00;4.60;;;22.60;99.90;;;;;;4969027;28;20269;-82
2022/06/03 06:04:12;;;;;;;5.30;4.80;;;23.10;99.90;;;;;;4953075;29;20269;-81
2022/06/03 06:06:52;;;;;;;6.70;6.20;;;23.40;99.90;;;;;;4967414;28;20233;-81
2022/06/03 06:09:35;;;;;;;7.07;6.47;;;23.70;99.90;;;;;;4974824;28;20198;-81
2022/06/03 06:12:27;;;;;;;4.77;3.90;;;23.80;99.90;;;;;;4958667;28;20226;-81
2022/06/03 06:15:10;;;;;;;4.20;3.80;;;24.00;99.90;;;;;;4973006;28;20202;-82
2022/06/03 06:17:55;;;;;;;4.77;4.00;;;23.80;99.90;;;;;;4955104;28;20218;-81
2022/06/03 06:20:37;;;;;;;5.43;3.60;;;23.80;99.90;;;;;;4957949;28;20202;-81
2022/06/03 06:23:12;;;;;;;3.93;3.53;;;23.60;99.90;;;;;;4973548;28;20198;-81
2022/06/03 06:25:47;;;;;;;4.90;3.47;;;23.80;99.90;;;;;;4973634;28;20617;-79
2022/06/03 06:28:34;;;;;;;5.67;3.40;;;24.10;99.90;;;;;;4958237;28;20253;-80
2022/06/03 06:31:36;;;;;;;4.03;3.63;;;24.50;99.90;;;;;;4969798;28;20205;-81
2022/06/03 06:34:26;;;;;;;6.53;3.90;;;24.90;99.90;;;;;;4954537;28;20202;-82
2022/06/03 06:37:25;;;;;;;5.57;3.80;;;24.90;99.90;;;;;;4946924;28;20442;-81
2022/06/03 06:40:08;;;;;;;5.73;4.00;;;24.80;99.90;;;;;;4951555;28;20231;-81
2022/06/03 06:42:52;;;;;;;5.00;4.30;;;24.60;99.90;;;;;;4958284;28;20202;-80
2022/06/03 06:45:28;;;;;;;4.87;3.63;;;24.70;99.90;;;;;;4973169;28;20209;-80
2022/06/03 06:48:02;;;;;;;5.37;4.80;;;25.00;99.90;;;;;;4958147;28;20228;-81
2022/06/03 06:50:39;;;;;;;3.50;3.20;;;25.20;99.90;;;;;;4958089;28;20202;-80
2022/06/03 06:53:10;;;;;;;6.17;5.67;;;25.60;99.90;;;;;;4961169;28;20265;-81
2022/06/03 06:55:47;;;;;;;6.83;6.13;;;25.90;99.90;;;;;;4954654;28;20280;-81
2022/06/03 06:58:32;;;;;;;6.27;5.60;;;26.30;99.90;;;;;;4960712;28;20775;-80
2022/06/03 07:01:02;;;;;;;5.97;5.47;;;26.50;99.90;;;;;;4957063;29;20201;-81
2022/06/03 07:03:45;;;;;;;6.40;5.80;;;26.50;99.90;;;;;;4962468;28;20261;-81
2022/06/03 07:06:17;;;;;;;6.63;5.97;;;26.60;99.90;;;;;;4985076;28;20656;-81
2022/06/03 07:08:48;;;;;;;6.43;5.93;;;26.60;99.90;;;;;;4962523;28;20202;-81
2022/06/03 07:11:23;;;;;;;6.20;5.60;;;26.60;99.90;;;;;;4962362;28;20198;-80
2022/06/03 07:13:55;;;;;;;6.47;5.83;;;26.60;99.90;;;;;;4963620;28;20262;-81
2022/06/03 07:22:12;;;;;;;8.80;5.87;;;26.90;99.90;;;;;;4956071;28;20237;-80
2022/06/03 07:24:46;;;;;;;8.03;6.03;;;27.10;99.90;;;;;;4960371;28;20617;-80
2022/06/03 07:27:21;;;;;;;6.33;5.50;;;27.10;99.90;;;;;;4960536;28;20223;-80
2022/06/03 07:30:00;;;;;;;6.50;5.87;;;27.30;99.90;;;;;;4959853;28;20206;-80
2022/06/03 07:32:31;;;;;;;7.43;6.73;;;27.40;99.90;;;;;;4960248;28;20276;-80
2022/06/03 07:35:02;;;;;;;6.20;5.70;;;27.40;99.90;;;;;;4976124;28;20207;-80
2022/06/03 07:37:35;;;;;;;6.30;5.67;;;27.30;99.90;;;;;;4961242;28;20218;-81
2022/06/03 07:40:07;;;;;;;5.90;5.40;;;27.50;99.90;;;;;;4959941;28;20229;-81
2022/06/03 07:42:44;;;;;;;6.47;5.97;;;27.70;99.90;;;;;;4960266;28;20203;-80
2022/06/03 07:45:29;;;;;;;6.40;5.90;;;28.00;99.90;;;;;;4962444;28;20206;-81
2022/06/03 07:48:00;;;;;;;6.60;6.10;;;28.20;99.90;;;;;;4973846;28;20290;-81
2022/06/03 07:50:29;;;;;;;6.60;6.10;;;28.20;99.90;;;;;;4975144;28;20634;-80
2022/06/03 07:53:01;;;;;;;6.33;5.73;;;27.60;99.90;;;;;;4961221;28;20793;-80
2022/06/03 07:55:30;;;;;;;5.60;5.20;;;27.60;99.90;;;;;;4961914;28;20190;-80
2022/06/03 07:58:02;;;;;;;5.97;5.57;;;27.60;99.90;;;;;;4975373;28;20218;-80
2022/06/03 08:00:35;;;;;;;7.20;6.53;;;27.80;99.90;;;;;;4976229;28;20237;-81
2022/06/03 08:03:07;;;;;;;6.57;5.90;;;27.20;99.90;;;;;;4975662;28;20238;-80
2022/06/03 08:05:34;;;;;;;5.63;5.23;;;27.20;99.90;;;;;;4976260;28;20203;-81
2022/06/03 08:11:00;;;;;;;6.00;5.60;;;27.40;99.90;;;;;;4970459;28;20194;-80
2022/06/03 08:13:43;;;;;;;5.73;5.30;;;27.80;99.90;;;;;;4961591;28;20265;-80
2022/06/03 08:16:18;;;;;;;6.80;6.30;;;28.10;99.90;;;;;;4961733;28;20206;-81
2022/06/03 08:18:46;;;;;;;7.57;6.93;;;27.80;99.90;;;;;;4969335;28;20198;-80
2022/06/03 08:21:20;;;;;;;8.07;7.03;;;28.00;99.90;;;;;;4961274;28;20222;-80
2022/06/03 08:23:47;;;;;;;7.20;6.50;;;28.10;99.90;;;;;;4961070;28;20603;-81
2022/06/03 08:26:17;;;;;;;7.20;6.70;;;27.60;99.90;;;;;;4961045;28;20277;-80
2022/06/03 08:28:49;;;;;;;7.93;7.30;;;27.80;99.90;;;;;;4976193;28;20195;-80
2022/06/03 08:31:22;;;;;;;6.73;6.30;;;27.50;99.90;;;;;;4959198;28;20254;-81
2022/06/03 08:33:51;;;;;;;7.37;6.87;;;27.50;99.90;;;;;;4955536;28;20195;-80
2022/06/03 08:36:23;;;;;;;7.57;7.07;;;27.90;99.90;;;;;;4958096;28;20212;-81
2022/06/03 08:38:56;;;;;;;7.83;7.20;;;28.20;99.90;;;;;;4973219;28;20655;-81
2022/06/03 08:41:38;;;;;;;7.37;6.87;;;28.30;99.90;;;;;;4959394;28;20216;-81
2022/06/03 08:44:17;;;;;;;7.53;6.93;;;28.20;99.90;;;;;;4973646;28;20209;-81
2022/06/03 08:46:53;;;;;;;7.70;7.10;;;28.40;99.90;;;;;;4954578;28;20222;-82
2022/06/03 08:49:23;;;;;;;7.00;6.50;;;28.90;99.90;;;;;;4961153;29;20624;-82
2022/06/03 08:51:53;;;;;;;7.23;6.67;;;28.90;99.90;;;;;;4974001;28;20207;-82
2022/06/03 08:54:27;;;;;;;7.40;6.83;;;29.30;99.90;;;;;;4975090;28;20219;-82
2022/06/03 08:56:57;;;;;;;7.47;6.93;;;29.40;99.90;;;;;;4972340;28;20767;-81
2022/06/03 08:59:30;;;;;;;6.93;6.33;;;29.60;99.90;;;;;;4956841;28;20214;-82
2022/06/03 09:02:01;;;;;;;7.70;7.20;;;29.80;99.90;;;;;;4974969;28;20258;-81
2022/06/03 09:04:34;;;;;;;7.27;6.77;;;29.70;99.90;;;;;;4959337;28;20249;-81
2022/06/03 09:07:08;;;;;;;7.53;7.03;;;29.50;99.90;;;;;;4959655;28;20754;-81
2022/06/03 09:09:42;;;;;;;7.47;6.90;;;29.10;99.90;;;;;;4957815;28;20222;-83
2022/06/03 09:12:23;;;;;;;8.00;7.40;;;28.60;99.90;;;;;;4960328;28;20197;-80
2022/06/03 09:14:52;;;;;;;7.57;7.07;;;28.70;99.90;;;;;;4958392;28;20202;-81
2022/06/03 09:17:41;;;;;;;7.43;6.93;;;28.80;99.90;;;;;;4959221;28;20254;-80
2022/06/03 09:20:13;;;;;;;7.30;6.70;;;28.80;99.90;;;;;;4959972;28;20392;-80
2022/06/03 09:22:40;;;;;;;7.97;7.27;;;29.20;99.90;;;;;;4974290;28;20198;-80
2022/06/03 09:25:11;;;;;;;6.83;6.23;;;29.30;99.90;;;;;;4960228;28;20198;-81
2022/06/03 09:27:39;;;;;;;8.03;7.37;;;29.40;99.90;;;;;;4958199;28;20293;-81
2022/06/03 09:30:09;;;;;;;7.67;7.13;;;29.70;99.90;;;;;;4960106;28;20195;-81
2022/06/03 09:32:45;;;;;;;7.27;6.70;;;29.90;99.90;;;;;;4954932;28;20190;-81
2022/06/03 09:35:15;;;;;;;7.43;6.60;;;30.40;99.90;;;;;;4958408;28;20294;-80
2022/06/03 09:37:46;;;;;;;6.33;5.80;;;30.60;99.90;;;;;;4974488;28;20605;-81
2022/06/03 09:40:19;;;;;;;6.63;5.90;;;30.10;99.90;;;;;;4960457;28;20225;-82
2022/06/03 09:42:51;;;;;;;7.30;6.70;;;30.40;99.90;;;;;;4971904;28;20266;-81
2022/06/03 09:45:20;;;;;;;7.37;6.87;;;30.70;99.90;;;;;;4955421;28;20206;-81
2022/06/03 09:47:49;;;;;;;7.37;6.73;;;30.70;99.90;;;;;;4960103;28;20651;-81
2022/06/03 09:50:17;;;;;;;7.57;6.90;;;30.70;99.90;;;;;;4960395;28;20202;-81
2022/06/03 09:52:44;;;;;;;7.00;6.30;;;30.60;99.90;;;;;;4974585;28;20281;-81
2022/06/03 09:55:29;;;;;;;6.33;5.83;;;30.60;99.90;;;;;;4958264;28;20203;-81
2022/06/03 09:57:57;;;;;;;6.10;5.50;;;29.90;99.90;;;;;;4960446;28;20245;-81
2022/06/03 10:00:28;;;;;;;6.80;6.20;;;29.80;99.90;;;;;;4958071;28;20218;-81
2022/06/03 10:02:58;;;;;;;6.03;5.53;;;30.10;99.90;;;;;;4960506;28;20195;-81
2022/06/03 10:05:25;;;;;;;7.17;5.90;;;30.30;99.90;;;;;;4960178;28;20626;-81
2022/06/03 10:07:58;;;;;;;6.63;6.10;;;30.70;99.90;;;;;;4959694;28;20214;-81
2022/06/03 10:13:10;;;;;;;6.23;5.73;;;31.00;99.90;;;;;;4959312;28;20297;-81
2022/06/03 10:15:41;;;;;;;6.40;5.80;;;31.30;99.90;;;;;;4963686;28;20208;-82
2022/06/03 10:18:26;;;;;;;6.60;5.90;;;31.20;99.90;;;;;;4955793;28;20703;-82
2022/06/03 10:20:55;;;;;;;6.40;5.90;;;31.10;99.90;;;;;;4955326;28;20254;-81
2022/06/03 10:23:24;;;;;;;6.47;5.97;;;31.00;99.90;;;;;;4959641;28;20209;-80
2022/06/03 10:25:52;;;;;;;6.30;5.80;;;30.60;99.80;;;;;;4957448;28;20202;-81
2022/06/03 10:28:20;;;;;;;6.00;5.60;;;30.50;99.90;;;;;;4958071;28;20255;-80
2022/06/03 10:30:59;;;;;;;6.27;5.67;;;30.40;99.90;;;;;;4957661;28;20187;-79
2022/06/03 10:33:28;;;;;;;5.83;5.37;;;30.30;99.90;;;;;;4971140;28;20816;-79
2022/06/03 10:35:57;;;;;;;5.93;5.43;;;30.70;99.90;;;;;;4973391;28;20277;-79
2022/06/03 10:38:28;;;;;;;6.00;5.50;;;30.70;99.90;;;;;;4971626;28;20215;-79
2022/06/03 10:40:55;;;;;;;6.63;6.07;;;30.80;99.90;;;;;;4976360;28;20254;-79
2022/06/03 10:43:25;;;;;;;6.70;6.20;;;30.60;99.40;;;;;;4974966;28;20579;-79
2022/06/03 10:45:52;;;;;;;6.10;5.60;;;30.10;99.90;;;;;;4973288;28;20226;-80
2022/06/03 10:48:21;;;;;;;5.63;5.13;;;29.60;99.90;;;;;;4958273;28;20226;-79
2022/06/03 10:50:50;;;;;;;6.03;5.53;;;29.30;99.90;;;;;;4956967;28;20242;-79
2022/06/03 11:01:47;;;;;;;6.97;6.47;;;30.20;99.90;;;;;;4956355;28;20206;-80
2022/06/03 11:04:27;;;;;;;7.10;6.60;;;30.20;99.90;;;;;;4960724;28;20640;-80
2022/06/03 11:06:56;;;;;;;7.20;6.70;;;30.10;99.90;;;;;;4963430;28;20620;-80
2022/06/03 11:09:23;;;;;;;7.90;7.30;;;30.00;99.90;;;;;;4962198;28;20262;-79
2022/06/03 11:11:52;;;;;;;8.07;7.47;;;29.90;99.90;;;;;;4962275;28;20233;-79
2022/06/03 11:14:38;;;;;;;7.93;7.33;;;29.90;99.90;;;;;;4974947;28;20237;-79
2022/06/03 11:17:09;;;;;;;8.07;7.47;;;29.70;99.90;;;;;;4949102;29;20231;-79
2022/06/03 11:19:39;;;;;;;7.80;7.20;;;29.60;99.90;;;;;;4977129;28;20289;-81
2022/06/03 11:22:20;;;;;;;8.20;7.40;;;29.60;99.90;;;;;;4963275;28;20727;-81
2022/06/03 11:24:53;;;;;;;7.50;7.00;;;29.40;99.90;;;;;;4959889;29;20199;-83
2022/06/03 11:27:28;;;;;;;8.13;7.53;;;29.30;99.90;;;;;;4962690;28;20276;-82
2022/06/03 11:30:00;;;;;;;8.13;7.43;;;29.20;99.90;;;;;;4962400;28;20277;-82
2022/06/03 11:32:29;;;;;;;7.80;7.20;;;29.10;99.90;;;;;;4961217;28;20206;-82
2022/06/03 11:35:00;;;;;;;7.90;7.20;;;29.10;99.90;;;;;;4960998;28;20214;-82
2022/06/03 11:37:34;;;;;;;7.90;7.30;;;29.10;99.90;;;;;;4963082;28;20281;-82
2022/06/03 11:40:05;;;;;;;7.53;7.03;;;29.10;99.90;;;;;;4964894;28;20304;-82
2022/06/03 11:42:38;;;;;;;7.83;7.30;;;29.40;99.90;;;;;;4960347;28;20614;-78
2022/06/03 11:45:12;;;;;;;7.20;6.70;;;29.70;99.90;;;;;;4977652;28;20222;-80
2022/06/03 11:47:48;;;;;;;7.77;7.07;;;29.90;99.90;;;;;;4965931;28;20234;-81
2022/06/03 11:50:18;;;;;;;7.40;6.90;;;29.90;99.90;;;;;;4978627;28;20653;-83
2022/06/03 11:52:49;;;;;;;8.20;7.60;;;29.70;99.90;;;;;;4967651;28;20194;-83
2022/06/03 11:55:16;;;;;;;8.00;7.30;;;29.80;99.90;;;;;;4968491;28;20222;-83
2022/06/03 11:57:50;;;;;;;7.60;7.10;;;29.80;99.90;;;;;;4970145;28;20218;-83
2022/06/03 12:00:19;;;;;;;7.93;7.33;;;29.80;99.90;;;;;;4984288;28;20708;-83
2022/06/03 12:02:56;;;;;;;7.73;7.20;;;29.70;99.90;;;;;;4983577;28;20297;-82
2022/06/03 12:05:30;;;;;;;7.73;7.13;;;29.50;99.90;;;;;;4969241;28;20194;-83
2022/06/03 12:08:06;;;;;;;7.93;7.37;;;29.20;99.90;;;;;;4964825;28;20219;-83
2022/06/03 12:10:44;;;;;;;8.00;7.30;;;29.00;99.90;;;;;;4966442;28;20199;-83
2022/06/03 12:13:16;;;;;;;8.23;7.53;;;28.70;99.90;;;;;;4969406;28;20343;-82
2022/06/03 12:15:51;;;;;;;7.70;7.20;;;28.50;99.90;;;;;;4976641;28;20194;-83
2022/06/03 12:18:42;;;;;;;7.70;7.10;;;28.30;99.90;;;;;;4969129;28;20222;-83
2022/06/03 12:21:13;;;;;;;7.83;7.33;;;28.20;99.90;;;;;;4958328;28;20224;-83
2022/06/03 12:23:54;;;;;;;7.63;7.13;;;28.20;99.90;;;;;;4960583;28;20218;-83
2022/06/03 12:26:24;;;;;;;7.57;7.07;;;28.20;99.90;;;;;;4967830;28;20222;-82
2022/06/03 12:28:55;;;;;;;7.60;7.00;;;28.30;99.90;;;;;;4982854;28;20258;-83
2022/06/03 12:31:42;;;;;;;7.83;7.33;;;28.30;99.90;;;;;;4982475;28;20199;-83
2022/06/03 12:34:21;;;;;;;7.47;6.97;;;28.10;99.90;;;;;;4969587;28;20226;-83
2022/06/03 12:36:56;;;;;;;8.07;7.20;;;28.00;99.90;;;;;;4968245;28;20245;-83
2022/06/03 12:39:28;;;;;;;6.27;5.67;;;27.80;99.90;;;;;;4967005;28;20206;-83
2022/06/03 12:42:11;;;;;;;7.80;7.20;;;27.80;99.90;;;;;;4968503;28;20210;-83
2022/06/03 12:44:42;;;;;;;7.50;6.90;;;27.70;99.90;;;;;;4975520;28;20702;-82
2022/06/03 12:47:42;;;;;;;6.80;6.20;;;27.50;99.90;;;;;;4966380;28;20285;-83
2022/06/03 12:50:34;;;;;;;3.43;3.10;;;27.40;99.90;;;;;;4964344;28;20205;-81
2022/06/03 12:53:34;;;;;;;3.50;3.20;;;27.30;99.90;;;;;;4964503;28;20209;-83
2022/06/03 12:56:06;;;;;;;3.50;3.20;;;27.20;99.90;;;;;;4978688;28;20668;-82
2022/06/03 12:58:53;;;;;;;5.47;4.97;;;27.30;99.90;;;;;;4966482;28;20202;-83
2022/06/03 13:01:44;;;;;;;6.83;6.33;;;27.30;99.90;;;;;;4966783;28;20667;-82
2022/06/03 13:04:48;;;;;;;3.67;3.33;;;27.30;99.90;;;;;;4979135;28;20235;-82
2022/06/03 13:07:34;;;;;;;3.60;3.30;;;27.40;99.90;;;;;;4968019;28;20286;-82
2022/06/03 13:10:32;;;;;;;3.60;3.30;;;27.60;99.90;;;;;;4979646;28;20199;-83
2022/06/03 13:13:23;;;;;;;4.17;3.40;;;27.80;99.90;;;;;;4947754;28;20265;-83
2022/06/03 13:15:52;;;;;;;3.70;3.40;;;27.80;99.90;;;;;;4958010;28;20194;-81
2022/06/03 13:18:37;;;;;;;4.40;4.00;;;27.70;99.90;;;;;;4961991;28;20246;-80
2022/06/03 13:21:23;;;;;;;3.97;3.57;;;27.50;99.90;;;;;;4961133;29;20271;-84
2022/06/03 13:24:00;;;;;;;5.63;3.93;;;27.30;99.90;;;;;;4973601;28;20698;-82
2022/06/03 13:27:08;;;;;;;4.50;4.20;;;27.10;99.90;;;;;;4963576;28;20600;-84
2022/06/03 13:30:12;;;;;;;3.97;3.57;;;26.80;99.90;;;;;;4944738;29;20569;-83
2022/06/03 13:32:52;;;;;;;6.13;5.63;;;26.50;99.90;;;;;;4946625;29;20265;-83
2022/06/03 13:35:24;;;;;;;7.53;7.03;;;26.30;99.90;;;;;;4948129;28;20456;-81
2022/06/03 13:38:10;;;;;;;7.47;6.97;;;26.20;99.90;;;;;;4964433;28;20246;-81
2022/06/03 13:40:38;;;;;;;5.93;5.53;;;26.10;99.90;;;;;;4955275;28;20289;-81
2022/06/03 13:43:25;;;;;;;6.40;5.90;;;26.00;99.90;;;;;;4974949;28;20207;-81
2022/06/03 13:45:56;;;;;;;6.93;6.33;;;26.20;99.90;;;;;;4955900;28;20191;-81
2022/06/03 13:48:31;;;;;;;8.90;8.20;;;26.20;99.90;;;;;;4957480;28;20230;-84
2022/06/03 13:51:16;;;;;;;9.00;8.30;;;26.20;99.90;;;;;;4957027;28;20190;-81
2022/06/03 13:53:50;;;;;;;9.57;8.67;;;26.30;99.90;;;;;;4973535;28;20206;-80
2022/06/03 13:56:22;;;;;;;10.17;9.17;;;26.20;99.90;;;;;;4969051;28;20677;-80
2022/06/03 13:58:49;;;;;;;8.33;7.53;;;26.00;99.90;;;;;;4944404;28;20435;-81
2022/06/03 14:01:26;;;;;;;8.60;7.80;;;25.80;99.90;;;;;;4956519;28;20210;-81
2022/06/03 14:03:58;;;;;;;8.43;7.50;;;25.70;99.90;;;;;;4964175;28;20202;-80
2022/06/03 14:06:32;;;;;;;8.30;7.60;;;25.50;99.90;;;;;;4947979;28;20232;-80
2022/06/03 14:09:06;;;;;;;5.57;5.07;;;25.40;99.90;;;;;;4962155;28;20636;-80
2022/06/03 14:11:37;;;;;;;7.10;6.50;;;25.30;99.90;;;;;;4956264;28;20542;-80
2022/06/03 14:14:13;;;;;;;6.70;5.83;;;25.30;99.90;;;;;;4955786;28;20203;-81
2022/06/03 14:16:50;;;;;;;6.20;5.70;;;25.20;99.90;;;;;;4953152;28;20222;-81
2022/06/03 14:19:38;;;;;;;6.17;5.67;;;25.20;99.90;;;;;;4955118;28;20202;-81
2022/06/03 14:22:14;;;;;;;8.60;7.90;;;25.20;99.90;;;;;;4955458;28;20222;-81
2022/06/03 14:24:48;;;;;;;8.70;7.90;;;25.30;99.90;;;;;;4971229;28;20226;-80
2022/06/03 14:27:25;;;;;;;8.40;7.70;;;25.40;99.90;;;;;;4954214;28;20420;-81
2022/06/03 14:29:57;;;;;;;8.33;7.73;;;25.60;99.90;;;;;;4968944;28;21007;-81
2022/06/03 14:32:27;;;;;;;8.20;7.50;;;25.80;99.90;;;;;;4953707;28;20635;-82
2022/06/03 14:34:59;;;;;;;8.57;7.97;;;26.00;99.90;;;;;;4953488;28;20202;-82